Terminal Aerodrome Forecast
Issued by NWS

Home | Current Version | Previous Version | Text Only | Print | Product List | Glossary On
Versions: 1 2 3 4 5 6 7 8 9 10 11 12 13 14 15 16 17 18 19
727
FTAK31 PAJN 022334
TAFAJN
TAF
PAJN 022334Z 0300/0324 12025G35KT 6SM -SHRA BR FEW010 BKN040 OVC060
      WS020/12045KT
     FM030300 11018G28KT P6SM -SHRA BKN050 OVC080 WS020/16040KT
     FM030600 10018KT P6SM -SHRA BKN040 OVC060
     FM031200 10007KT P6SM -SHRA BKN040 OVC060
     FM032100 VRB05KT P6SM -SHRASN BKN030 OVC045=

USA.gov is the U.S. government's official web portal to all federal, state and local government web resources and services.